Time;durP1;ratioP1;P1;durP2;ratioP2;P2;SDS_P1;SDS_P2;PMS_P1;PMS_P2;Temp;Humidity;BMP_temperature;BMP_pressure;BME280_temperature;BME280_humidity;BME280_pressure;Samples;Min_cycle;Max_cycle;Signal;HPM_P1;HPM_P2
2022/07/24 00:03:36;;;;;;;3.55;2.88;;;;;;;23.39;46.48;100502.16;10430646;28;20040;-75
2022/07/24 00:08:40;;;;;;;3.22;2.60;;;;;;;23.40;46.76;100502.97;10429683;28;20049;-75
2022/07/24 00:13:42;;;;;;;3.53;3.00;;;;;;;23.33;46.69;100507.53;10429639;28;20124;-75
2022/07/24 00:18:43;;;;;;;6.13;2.80;;;;;;;23.23;47.40;100503.31;10430625;28;20131;-74
2022/07/24 00:23:45;;;;;;;3.70;2.70;;;;;;;23.15;47.19;100500.78;10432658;28;20044;-74
2022/07/24 00:28:48;;;;;;;3.65;2.88;;;;;;;23.07;47.00;100493.56;10432095;28;20626;-73
2022/07/24 00:33:49;;;;;;;3.00;2.65;;;;;;;22.95;47.55;100496.03;10433032;28;20752;-74
2022/07/24 00:38:51;;;;;;;4.75;3.00;;;;;;;22.88;47.82;100500.56;10430896;28;20814;-73
2022/07/24 00:44:06;;;;;;;3.38;2.72;;;;;;;22.84;47.60;100493.84;10430125;28;20041;-75
2022/07/24 00:49:10;;;;;;;3.38;2.80;;;;;;;22.85;47.45;100491.97;10428002;28;20036;-75
2022/07/24 00:54:20;;;;;;;3.42;2.65;;;;;;;22.79;47.62;100485.47;10424730;28;20041;-75
2022/07/24 00:59:22;;;;;;;;;;;;;;;22.75;47.95;100489.63;10442587;28;20055;-74
2022/07/24 01:04:24;;;;;;;2.83;2.53;;;;;;;22.66;48.13;100490.81;10437853;28;20019;-74
2022/07/24 01:09:25;;;;;;;3.00;2.78;;;;;;;22.66;48.14;100488.09;10436104;28;20044;-73
2022/07/24 01:14:27;;;;;;;3.92;2.95;;;;;;;22.60;48.22;100478.88;10433524;28;20051;-73
2022/07/24 01:19:28;;;;;;;2.70;2.50;;;;;;;22.65;48.02;100489.94;10432613;28;20072;-73
2022/07/24 01:24:29;;;;;;;2.63;2.42;;;;;;;22.57;48.08;100477.38;10433712;28;20475;-73
2022/07/24 01:29:31;;;;;;;3.25;2.72;;;;;;;22.46;48.14;100472.50;10434860;28;20064;-73
2022/07/24 01:34:32;;;;;;;5.15;3.63;;;;;;;22.44;48.43;100479.16;10424754;28;20054;-73
2022/07/24 01:39:34;;;;;;;6.28;3.33;;;;;;;22.39;48.32;100479.75;10431711;28;20056;-73
2022/07/24 01:44:35;;;;;;;3.15;2.33;;;;;;;22.43;48.61;100483.75;10422023;28;20071;-74
2022/07/24 01:49:37;;;;;;;2.50;2.28;;;;;;;22.43;48.32;100475.63;10429701;28;20222;-73
2022/07/24 01:54:38;;;;;;;3.95;2.58;;;;;;;22.44;48.70;100481.88;10435436;28;20126;-75
2022/07/24 01:59:40;;;;;;;3.90;2.45;;;;;;;22.42;48.81;100485.59;10424471;28;20142;-73
2022/07/24 02:04:41;;;;;;;2.92;2.30;;;;;;;22.41;49.14;100483.09;10437489;28;20062;-74
2022/07/24 02:09:42;;;;;;;4.07;2.95;;;;;;;22.44;48.81;100482.69;10440184;28;20045;-73
2022/07/24 02:14:44;;;;;;;3.72;3.15;;;;;;;22.44;48.80;100482.69;10434397;28;20678;-73
2022/07/24 02:19:45;;;;;;;3.08;2.28;;;;;;;22.46;48.80;100485.22;10444069;28;20073;-72
2022/07/24 02:24:46;;;;;;;3.15;2.50;;;;;;;22.40;48.89;100478.72;10444986;28;20089;-75
2022/07/24 02:29:48;;;;;;;3.00;2.70;;;;;;;22.35;49.46;100483.88;10459611;28;20051;-73
2022/07/24 02:34:49;;;;;;;2.53;2.33;;;;;;;22.28;48.91;100480.22;10443098;28;20492;-74
2022/07/24 02:39:51;;;;;;;2.85;2.55;;;;;;;22.27;49.38;100471.25;10437572;28;20602;-73
2022/07/24 02:44:52;;;;;;;6.25;2.72;;;;;;;22.20;49.67;100476.66;10425170;28;20168;-72
2022/07/24 02:49:54;;;;;;;2.90;2.38;;;;;;;22.17;49.33;100477.03;10445244;28;20127;-74
2022/07/24 02:54:55;;;;;;;2.90;2.55;;;;;;;22.18;49.66;100486.81;10434588;28;20691;-73
2022/07/24 02:59:56;;;;;;;4.25;3.00;;;;;;;22.14;49.59;100480.09;10443885;28;20165;-74
2022/07/24 03:04:58;;;;;;;3.67;2.63;;;;;;;22.10;49.74;100476.13;10436333;28;20820;-73
2022/07/24 03:09:59;;;;;;;4.03;2.92;;;;;;;22.06;49.45;100480.25;10436073;28;20129;-74
2022/07/24 03:15:01;;;;;;;5.35;2.80;;;;;;;22.00;49.62;100475.59;10427140;28;20136;-73
2022/07/24 03:20:03;;;;;;;3.80;3.08;;;;;;;21.89;49.79;100483.22;10423375;28;20521;-74
2022/07/24 03:25:05;;;;;;;3.00;2.70;;;;;;;21.80;50.10;100478.94;10442055;28;20823;-74
2022/07/24 03:30:08;;;;;;;4.10;2.80;;;;;;;21.89;49.97;100485.91;10436462;28;20048;-73
2022/07/24 03:35:09;;;;;;;5.13;3.07;;;;;;;21.82;50.32;100490.41;10437887;28;20136;-74
2022/07/24 03:40:12;;;;;;;;;;;;;;;21.80;50.41;100489.78;10436213;28;20048;-75
2022/07/24 03:45:14;;;;;;;2.95;2.65;;;;;;;21.90;50.16;100494.88;10420885;28;19928;-74
2022/07/24 03:50:15;;;;;;;3.25;2.95;;;;;;;21.94;50.33;100492.63;10424761;28;20140;-73
2022/07/24 03:55:22;;;;;;;3.50;2.80;;;;;;;21.98;50.29;100493.91;10438818;28;20159;-73
2022/07/24 04:00:24;;;;;;;3.70;3.40;;;;;;;21.96;50.29;100491.41;10441408;28;20083;-73
2022/07/24 04:05:25;;;;;;;3.75;2.75;;;;;;;22.04;49.70;100504.00;10439621;28;20148;-73
2022/07/24 04:10:27;;;;;;;4.72;3.08;;;;;;;22.03;50.08;100505.03;10435604;28;20136;-73
2022/07/24 04:15:28;;;;;;;3.03;2.65;;;;;;;22.01;50.35;100504.41;10436805;28;20093;-74
2022/07/24 04:20:29;;;;;;;3.00;2.50;;;;;;;21.95;50.40;100505.13;10422227;28;20589;-74
2022/07/24 04:25:31;;;;;;;4.57;2.95;;;;;;;21.95;50.00;100499.72;10436337;28;20052;-74
2022/07/24 04:30:32;;;;;;;3.13;2.60;;;;;;;21.89;50.63;100494.06;10436061;28;20163;-72
2022/07/24 04:35:34;;;;;;;3.28;2.97;;;;;;;21.84;50.72;100496.50;10433702;28;20090;-73
2022/07/24 04:40:35;;;;;;;3.20;2.90;;;;;;;21.88;51.10;100495.06;10433603;28;20052;-74
2022/07/24 04:45:36;;;;;;;4.30;3.03;;;;;;;21.90;50.55;100492.16;10419653;28;20163;-74
2022/07/24 04:50:38;;;;;;;3.92;2.85;;;;;;;21.86;51.14;100490.91;10418162;28;20594;-72
2022/07/24 04:55:39;;;;;;;4.68;3.70;;;;;;;21.81;51.09;100490.63;10419413;28;20056;-73
2022/07/24 05:00:41;;;;;;;3.75;2.97;;;;;;;21.74;51.49;100504.09;10413041;28;20256;-74
2022/07/24 05:05:42;;;;;;;3.47;3.17;;;;;;;21.72;51.80;100500.72;10435562;28;20055;-74
2022/07/24 05:10:44;;;;;;;3.38;2.90;;;;;;;21.70;51.78;100508.22;10432085;28;20155;-73
2022/07/24 05:15:45;;;;;;;3.33;2.80;;;;;;;21.82;51.72;100505.84;10432468;28;20059;-73
2022/07/24 05:20:47;;;;;;;4.55;3.17;;;;;;;21.88;51.87;100508.63;10421641;28;20044;-74
2022/07/24 05:25:48;;;;;;;3.67;2.75;;;;;;;21.91;51.90;100514.72;10437806;28;20102;-74
2022/07/24 05:30:50;;;;;;;5.40;2.92;;;;;;;21.98;51.79;100507.47;10426924;28;20174;-73
2022/07/24 05:35:51;;;;;;;3.15;2.72;;;;;;;22.09;52.47;100500.72;10435764;28;20052;-73
2022/07/24 05:40:53;;;;;;;2.92;2.70;;;;;;;22.17;52.21;100515.00;10453290;28;20076;-73
2022/07/24 05:45:54;;;;;;;2.85;2.53;;;;;;;22.29;51.83;100519.88;10444889;28;20515;-73
2022/07/24 05:50:56;;;;;;;5.90;3.20;;;;;;;22.40;51.37;100508.56;10452629;28;20075;-72
2022/07/24 05:55:58;;;;;;;6.53;4.47;;;;;;;22.47;50.52;100520.28;10451589;28;20057;-74
2022/07/24 06:00:59;;;;;;;3.45;3.10;;;;;;;22.55;50.75;100516.59;10442962;28;20231;-74
2022/07/24 06:06:01;;;;;;;3.00;2.72;;;;;;;22.70;50.41;100527.34;10427706;28;20131;-73
2022/07/24 06:11:02;;;;;;;2.72;2.33;;;;;;;22.85;50.26;100530.81;10441413;28;20046;-75
2022/07/24 06:16:04;;;;;;;2.85;2.63;;;;;;;22.81;50.32;100526.00;10428074;28;20252;-72
2022/07/24 06:21:06;;;;;;;5.22;2.88;;;;;;;22.86;50.42;100521.63;10445747;28;20067;-73
2022/07/24 06:26:07;;;;;;;6.68;2.40;;;;;;;23.05;50.49;100521.97;10421058;28;20052;-73
2022/07/24 06:31:09;;;;;;;4.93;2.83;;;;;;;23.23;49.64;100532.34;10441643;28;20846;-71
2022/07/24 06:36:18;;;;;;;3.58;2.65;;;;;;;23.39;48.47;100523.00;10421457;28;20037;-73
2022/07/24 06:41:19;;;;;;;4.55;2.78;;;;;;;23.45;47.90;100514.91;10417798;28;20163;-72
2022/07/24 06:46:20;;;;;;;2.88;2.67;;;;;;;23.44;48.08;100498.81;10438934;28;20739;-73
2022/07/24 06:51:22;;;;;;;3.38;2.47;;;;;;;23.64;47.89;100498.88;10439885;28;20047;-74
2022/07/24 06:56:23;;;;;;;3.25;2.40;;;;;;;23.79;47.29;100501.44;10444135;28;20060;-74
2022/07/24 07:01:26;;;;;;;2.97;2.60;;;;;;;23.86;47.18;100502.34;10441571;28;20726;-74
2022/07/24 07:06:27;;;;;;;3.20;2.90;;;;;;;23.82;47.04;100490.16;10440907;28;20148;-73
2022/07/24 07:11:29;;;;;;;2.70;2.40;;;;;;;23.91;46.92;100497.09;10437555;28;20053;-74
2022/07/24 07:16:30;;;;;;;3.35;3.05;;;;;;;24.16;46.40;100493.81;10444365;28;20049;-73
2022/07/24 07:21:32;;;;;;;3.13;2.30;;;;;;;24.37;45.78;100489.25;10429323;28;20040;-73
2022/07/24 07:26:33;;;;;;;2.30;2.00;;;;;;;24.59;45.33;100490.75;10445043;28;20062;-71
2022/07/24 07:31:34;;;;;;;2.63;2.42;;;;;;;24.82;45.14;100490.28;10446976;28;20393;-77
2022/07/24 07:36:37;;;;;;;3.25;2.92;;;;;;;24.96;44.12;100484.81;10448584;28;20079;-74
2022/07/24 07:41:38;;;;;;;5.35;2.67;;;;;;;24.96;43.72;100482.91;10444365;28;20098;-73
2022/07/24 07:46:39;;;;;;;5.70;4.18;;;;;;;25.22;43.03;100489.34;10437913;28;20056;-73
2022/07/24 07:51:42;;;;;;;3.15;2.85;;;;;;;25.30;42.76;100485.59;10441476;28;20053;-74
2022/07/24 07:56:44;;;;;;;3.83;2.95;;;;;;;25.57;42.40;100486.31;10425332;28;20975;-73
2022/07/24 08:01:45;;;;;;;3.13;2.92;;;;;;;25.75;41.52;100489.16;10433786;28;20123;-74
2022/07/24 08:06:47;;;;;;;3.30;3.00;;;;;;;25.88;42.11;100503.75;10429449;28;20744;-77
2022/07/24 08:11:50;;;;;;;;;;;;;;;26.00;41.14;100499.31;10427761;28;20533;-74
2022/07/24 08:16:51;;;;;;;2.92;2.72;;;;;;;26.12;41.60;100491.25;10438209;28;20402;-75
2022/07/24 08:21:53;;;;;;;3.55;3.15;;;;;;;26.32;40.68;100487.53;10438214;28;20132;-75
2022/07/24 08:26:54;;;;;;;4.18;3.20;;;;;;;26.50;41.01;100490.34;10421097;28;20056;-74
2022/07/24 08:31:55;;;;;;;3.05;2.75;;;;;;;26.60;40.40;100484.38;10434627;28;20103;-74
2022/07/24 08:36:57;;;;;;;3.03;2.80;;;;;;;26.92;40.17;100487.88;10434834;28;20049;-74
2022/07/24 08:41:58;;;;;;;3.88;2.92;;;;;;;27.09;39.20;100482.63;10433850;28;20055;-73
2022/07/24 08:47:00;;;;;;;3.17;2.88;;;;;;;27.32;39.16;100473.78;10443058;28;20419;-77
2022/07/24 08:52:08;;;;;;;3.20;2.80;;;;;;;27.42;37.52;100465.03;10429630;28;20124;-76
2022/07/24 08:57:09;;;;;;;3.30;3.00;;;;;;;27.71;37.58;100459.81;10434568;28;20075;-74
2022/07/24 09:02:12;;;;;;;3.33;2.95;;;;;;;27.87;37.05;100467.34;10435642;28;20195;-74
2022/07/24 09:07:16;;;;;;;2.88;2.58;;;;;;;28.04;37.43;100473.06;10426587;28;20416;-73
2022/07/24 09:12:17;;;;;;;4.35;3.00;;;;;;;28.37;37.04;100462.63;10437902;28;20284;-75
2022/07/24 09:17:20;;;;;;;3.05;2.80;;;;;;;28.87;36.37;100464.91;10438535;28;20139;-74
2022/07/24 09:22:34;;;;;;;3.22;3.00;;;;;;;29.26;34.67;100457.00;10442066;28;20128;-76
2022/07/24 09:27:38;;;;;;;4.30;2.83;;;;;;;29.69;33.54;100462.22;10444749;28;20104;-74
2022/07/24 09:32:39;;;;;;;2.80;2.58;;;;;;;29.92;32.67;100453.03;10444295;28;20051;-75
2022/07/24 09:37:53;;;;;;;3.58;2.67;;;;;;;29.95;32.96;100456.16;10445642;28;20071;-75
2022/07/24 09:43:14;;;;;;;2.88;2.45;;;;;;;30.45;31.98;100456.44;10426365;28;20060;-73
2022/07/24 09:48:15;;;;;;;3.10;2.80;;;;;;;30.28;33.03;100449.00;10441355;28;20053;-74
2022/07/24 09:53:19;;;;;;;3.25;2.97;;;;;;;30.80;31.12;100458.03;10442784;28;20048;-75
2022/07/24 09:58:20;;;;;;;3.65;2.88;;;;;;;31.02;29.66;100436.13;10425787;28;20912;-74
2022/07/24 10:03:29;;;;;;;3.30;3.00;;;;;;;30.81;30.55;100437.72;10427743;28;20137;-74
2022/07/24 10:08:32;;;;;;;3.25;2.95;;;;;;;31.28;30.13;100425.44;10435711;28;20044;-75
2022/07/24 10:13:34;;;;;;;3.50;3.20;;;;;;;31.80;28.73;100426.81;10442538;28;20143;-73
2022/07/24 10:19:01;;;;;;;3.88;3.10;;;;;;;31.57;29.62;100433.47;10443465;28;20045;-74
2022/07/24 10:24:06;;;;;;;5.10;3.08;;;;;;;31.49;29.22;100426.47;10441619;28;20052;-75
2022/07/24 10:29:10;;;;;;;3.97;3.50;;;;;;;31.41;29.47;100425.03;10445750;28;20045;-75
2022/07/24 10:34:23;;;;;;;4.80;3.88;;;;;;;32.12;29.25;100415.00;10424997;28;20096;-75
2022/07/24 10:39:31;;;;;;;3.75;3.25;;;;;;;32.80;27.83;100406.09;10437145;28;20575;-75
2022/07/24 10:44:33;;;;;;;4.55;3.40;;;;;;;33.34;27.43;100400.25;10435182;28;20693;-74
2022/07/24 10:49:50;;;;;;;4.07;3.78;;;;;;;33.55;26.19;100390.06;10437761;28;20051;-76
2022/07/24 10:55:21;;;;;;;3.85;3.55;;;;;;;34.04;26.21;100397.03;10437845;28;20083;-75
2022/07/24 11:00:35;;;;;;;3.90;3.60;;;;;;;34.37;25.98;100386.53;10417004;28;20102;-77
2022/07/24 11:05:41;;;;;;;4.13;3.78;;;;;;;34.81;25.10;100383.09;10435571;28;20567;-75
2022/07/24 11:10:54;;;;;;;3.85;3.10;;;;;;;34.95;25.58;100372.28;10435261;28;20051;-75
2022/07/24 11:16:10;;;;;;;3.97;3.60;;;;;;;35.10;24.71;100362.22;10441064;28;20044;-75
2022/07/24 11:21:12;;;;;;;4.07;3.65;;;;;;;35.42;25.06;100356.25;10445292;28;20471;-73
2022/07/24 11:26:32;;;;;;;4.45;3.58;;;;;;;35.46;24.59;100354.56;10442833;28;20123;-76
2022/07/24 11:31:37;;;;;;;4.00;3.70;;;;;;;35.47;23.96;100339.59;10439004;28;20125;-75
2022/07/24 11:36:54;;;;;;;5.75;3.78;;;;;;;35.49;24.13;100337.38;10433049;28;20048;-77
2022/07/24 11:42:00;;;;;;;3.70;3.38;;;;;;;35.30;25.10;100330.91;10436080;28;20049;-76
2022/07/24 11:47:11;;;;;;;3.72;3.17;;;;;;;34.41;25.73;100321.31;10436194;28;20152;-75
2022/07/24 11:52:14;;;;;;;3.65;3.42;;;;;;;33.89;25.42;100317.00;10431019;28;20045;-76
2022/07/24 11:57:20;;;;;;;3.78;3.47;;;;;;;34.44;25.93;100315.25;10439645;28;20139;-75
2022/07/24 12:02:56;;;;;;;4.13;3.83;;;;;;;34.69;24.68;100299.66;10431313;28;20048;-75
2022/07/24 12:07:59;;;;;;;3.85;3.55;;;;;;;34.74;24.64;100296.88;10433222;28;20045;-76
2022/07/24 12:13:01;;;;;;;4.10;3.75;;;;;;;34.95;24.23;100294.00;10438201;28;20123;-74
2022/07/24 12:18:05;;;;;;;4.20;3.45;;;;;;;34.94;25.04;100281.31;10424725;28;20048;-76
2022/07/24 12:23:09;;;;;;;4.03;3.60;;;;;;;35.06;24.40;100273.47;10426484;28;20122;-75
2022/07/24 12:28:18;;;;;;;4.10;3.75;;;;;;;34.75;25.33;100262.56;10436324;28;20713;-76
2022/07/24 12:33:26;;;;;;;4.32;3.92;;;;;;;34.39;24.03;100265.50;10430616;28;20041;-76
2022/07/24 12:38:33;;;;;;;4.20;3.90;;;;;;;34.55;24.56;100257.19;10435914;22;20072;-73
2022/07/24 12:43:57;;;;;;;5.18;4.78;;;;;;;34.43;24.23;100250.03;10452890;28;20052;-79
2022/07/24 12:49:07;;;;;;;3.75;3.45;;;;;;;34.59;24.62;100247.19;10453744;28;20048;-75
2022/07/24 12:54:08;;;;;;;4.28;3.88;;;;;;;34.30;24.32;100245.13;10454084;28;20110;-76
2022/07/24 12:59:40;;;;;;;4.47;3.97;;;;;;;34.40;24.20;100245.06;10439106;28;20051;-73
2022/07/24 13:04:46;;;;;;;3.95;3.55;;;;;;;34.14;25.15;100231.34;10465360;28;20540;-77
2022/07/24 13:09:48;;;;;;;4.43;4.03;;;;;;;34.17;24.37;100230.78;10464515;28;20469;-75
2022/07/24 13:14:50;;;;;;;6.68;4.65;;;;;;;34.15;25.30;100215.59;10463246;28;20191;-75
2022/07/24 13:19:52;;;;;;;5.32;4.05;;;;;;;34.13;25.29;100213.09;10444334;28;20052;-76
2022/07/24 13:24:53;;;;;;;4.55;4.13;;;;;;;33.61;25.75;100206.03;10458894;28;20723;-75
2022/07/24 13:29:55;;;;;;;4.07;3.78;;;;;;;33.80;25.98;100201.63;10439523;28;20127;-76
2022/07/24 13:34:56;;;;;;;4.95;4.55;;;;;;;33.88;24.60;100202.97;10453564;28;20072;-75
2022/07/24 13:39:58;;;;;;;4.00;3.70;;;;;;;33.26;25.25;100196.72;10453101;28;20044;-77
2022/07/24 13:44:59;;;;;;;4.80;4.40;;;;;;;33.10;25.67;100180.16;10460470;28;20403;-75
2022/07/24 13:50:01;;;;;;;;;;;;;;;33.09;24.93;100177.66;10451137;28;20194;-75
2022/07/24 13:55:02;;;;;;;4.70;4.30;;;;;;;33.06;24.80;100162.50;10468128;28;19989;-77
2022/07/24 14:00:04;;;;;;;4.22;3.83;;;;;;;33.03;24.45;100168.56;10473044;28;20523;-80
2022/07/24 14:05:06;;;;;;;4.05;3.42;;;;;;;32.96;24.90;100162.50;10474739;28;20491;-75
2022/07/24 14:10:08;;;;;;;4.00;3.70;;;;;;;32.87;25.08;100153.13;10466047;28;20549;-76
2022/07/24 14:15:09;;;;;;;;;;;;;;;32.82;24.93;100140.16;10471038;28;20048;-74
2022/07/24 14:20:12;;;;;;;4.43;3.22;;;;;;;32.85;25.87;100127.75;10459140;28;19986;-75
2022/07/24 14:25:14;;;;;;;6.32;3.95;;;;;;;32.68;25.81;100117.00;10453295;28;20545;-77
2022/07/24 14:30:15;;;;;;;7.18;4.18;;;;;;;32.72;26.37;100127.19;10438066;28;20136;-75
2022/07/24 14:35:17;;;;;;;6.25;4.10;;;;;;;32.67;25.91;100115.34;10461625;28;20049;-74
2022/07/24 14:40:18;;;;;;;4.43;4.03;;;;;;;32.56;26.20;100108.97;10458510;28;21601;-72
2022/07/24 14:45:20;;;;;;;;;;;;;;;32.52;26.17;100103.19;10458811;28;20165;-75
2022/07/24 14:50:22;;;;;;;4.63;4.22;;;;;;;32.45;26.56;100101.81;10459522;28;19923;-74
2022/07/24 14:55:27;;;;;;;4.68;4.28;;;;;;;32.35;26.27;100086.91;10462402;28;20052;-73
2022/07/24 15:00:29;;;;;;;5.25;4.78;;;;;;;32.19;25.95;100088.00;10458043;28;20056;-75
2022/07/24 15:05:30;;;;;;;4.80;4.40;;;;;;;32.03;26.66;100085.13;10453368;28;20434;-73
2022/07/24 15:10:31;;;;;;;4.82;4.43;;;;;;;31.95;26.96;100082.06;10451746;28;20044;-76
2022/07/24 15:15:33;;;;;;;5.15;4.75;;;;;;;31.92;27.04;100077.97;10453610;28;20051;-73
2022/07/24 15:20:34;;;;;;;5.10;3.63;;;;;;;31.88;27.11;100060.34;10450341;28;20892;-76
2022/07/24 15:25:36;;;;;;;4.22;3.90;;;;;;;31.90;26.06;100063.63;10451540;28;20578;-75
2022/07/24 15:30:39;;;;;;;4.85;4.40;;;;;;;31.80;26.14;100063.59;10453474;28;20205;-72
2022/07/24 15:35:41;;;;;;;4.90;4.53;;;;;;;31.71;26.74;100047.63;10433077;28;20040;-72
2022/07/24 15:40:43;;;;;;;4.40;4.00;;;;;;;31.75;26.71;100049.81;10446629;28;20048;-74
2022/07/24 15:45:46;;;;;;;5.10;4.28;;;;;;;31.71;26.58;100044.03;10449575;28;20047;-75
2022/07/24 15:50:47;;;;;;;4.68;4.28;;;;;;;31.69;26.59;100036.06;10430758;28;20143;-70
2022/07/24 15:55:49;;;;;;;4.32;4.03;;;;;;;31.62;26.90;100021.72;10433798;28;20422;-73
2022/07/24 16:00:50;;;;;;;4.47;4.07;;;;;;;31.63;27.07;100009.63;10431022;28;20062;-73
2022/07/24 16:05:57;;;;;;;5.30;4.80;;;;;;;31.50;27.43;100018.34;10449315;28;20041;-72
2022/07/24 16:10:58;;;;;;;3.75;3.45;;;;;;;31.50;27.59;100005.41;10437500;28;20224;-75
2022/07/24 16:16:00;;;;;;;5.40;4.90;;;;;;;31.44;27.75;100002.94;10446592;28;20084;-74
2022/07/24 16:21:02;;;;;;;4.80;4.35;;;;;;;31.43;27.96;99993.84;10430539;28;20462;-74
2022/07/24 16:26:06;;;;;;;5.05;4.40;;;;;;;31.43;28.14;99998.50;10447588;28;20052;-73
2022/07/24 16:31:07;;;;;;;4.80;4.28;;;;;;;31.37;28.11;99998.47;10425889;28;20407;-74
2022/07/24 16:36:09;;;;;;;5.35;4.95;;;;;;;31.35;28.32;99986.13;10430474;28;20182;-73
2022/07/24 16:41:11;;;;;;;;;;;;;;;31.34;28.16;99984.44;10442934;28;21637;-74
2022/07/24 16:46:13;;;;;;;5.40;4.60;;;;;;;31.34;28.03;99982.53;10421192;28;20010;-73
2022/07/24 16:51:15;;;;;;;6.13;4.85;;;;;;;31.29;28.01;99966.00;10424036;28;20911;-74
2022/07/24 16:56:37;;;;;;;;;;;;;;;31.24;27.32;99963.22;10443559;28;20051;-75
2022/07/24 17:01:38;;;;;;;5.50;4.97;;;;;;;31.23;28.51;99958.84;10427457;28;19951;-74
2022/07/24 17:06:40;;;;;;;5.18;4.68;;;;;;;31.19;28.38;99961.28;10448750;28;20063;-73
2022/07/24 17:11:51;;;;;;;4.93;4.20;;;;;;;31.20;28.48;99962.13;10430358;28;20302;-72
2022/07/24 17:16:54;;;;;;;5.47;5.07;;;;;;;31.21;28.67;99955.50;10451080;28;20235;-73
2022/07/24 17:22:14;;;;;;;5.20;4.70;;;;;;;31.14;28.50;99953.03;10441123;28;20048;-74
2022/07/24 17:27:17;;;;;;;6.65;5.05;;;;;;;31.01;28.42;99957.06;10450488;28;20108;-75
2022/07/24 17:32:20;;;;;;;5.13;4.72;;;;;;;31.02;29.03;99958.72;10450877;28;20063;-74
2022/07/24 17:37:21;;;;;;;5.77;5.17;;;;;;;30.96;29.08;99962.53;10454969;28;20127;-74
2022/07/24 17:42:25;;;;;;;5.35;4.90;;;;;;;30.93;29.13;99957.56;10438392;28;20296;-74
2022/07/24 17:47:26;;;;;;;5.10;4.70;;;;;;;30.83;29.67;99958.31;10451234;28;20604;-73
2022/07/24 17:52:28;;;;;;;6.10;5.63;;;;;;;30.73;29.59;99962.91;10437611;28;20361;-73
2022/07/24 17:57:29;;;;;;;5.95;4.95;;;;;;;30.67;29.75;99954.66;10453421;28;20576;-72
2022/07/24 18:02:30;;;;;;;5.53;5.00;;;;;;;30.58;29.67;99950.75;10454176;28;20562;-74
2022/07/24 18:07:32;;;;;;;5.55;5.10;;;;;;;30.52;30.24;99954.53;10446485;28;20803;-75
2022/07/24 18:12:34;;;;;;;5.22;4.82;;;;;;;30.41;30.04;99950.06;10469168;28;20150;-74
2022/07/24 18:17:36;;;;;;;5.10;4.77;;;;;;;30.35;30.21;99946.41;10463521;28;20079;-73
2022/07/24 18:22:38;;;;;;;5.53;4.70;;;;;;;30.28;30.44;99948.53;10454407;28;20318;-73
2022/07/24 18:27:39;;;;;;;6.07;5.47;;;;;;;30.18;30.69;99957.53;10444347;28;20069;-73
2022/07/24 18:32:41;;;;;;;5.17;4.67;;;;;;;30.11;30.88;99954.16;10442629;28;20059;-73
2022/07/24 18:37:43;;;;;;;6.57;5.82;;;;;;;30.05;30.85;99953.28;10478528;28;20136;-72
2022/07/24 18:42:45;;;;;;;6.37;5.87;;;;;;;29.97;30.88;99954.59;10476936;28;20085;-75
2022/07/24 18:47:46;;;;;;;5.75;5.25;;;;;;;29.86;31.07;99955.59;10463665;28;20071;-76
2022/07/24 18:52:48;;;;;;;6.23;5.63;;;;;;;29.76;31.38;99955.47;10476077;28;20043;-77
2022/07/24 18:57:49;;;;;;;5.60;5.10;;;;;;;29.63;31.71;99940.22;10456626;28;20845;-74
2022/07/24 19:02:51;;;;;;;6.10;5.60;;;;;;;29.56;31.87;99945.06;10435534;28;20617;-74
2022/07/24 19:07:52;;;;;;;6.57;5.83;;;;;;;29.47;32.46;99944.72;10460407;28;20588;-73
2022/07/24 19:12:54;;;;;;;5.60;5.10;;;;;;;29.40;32.17;99941.34;10452471;28;20465;-72
2022/07/24 19:17:55;;;;;;;6.50;5.90;;;;;;;29.30;32.59;99936.56;10436280;28;20175;-75
2022/07/24 19:22:57;;;;;;;5.70;5.13;;;;;;;29.22;33.06;99956.19;10437500;28;20044;-74
2022/07/24 19:27:59;;;;;;;5.90;5.40;;;;;;;29.14;33.33;99949.22;10454570;28;25333;-74
2022/07/24 19:33:00;;;;;;;5.90;5.40;;;;;;;29.03;33.75;99958.38;10431825;28;20136;-73
2022/07/24 19:38:02;;;;;;;6.63;6.10;;;;;;;28.91;34.30;99945.63;10437515;28;20055;-75
2022/07/24 19:43:03;;;;;;;8.20;7.50;;;;;;;28.82;35.05;99958.06;10449198;28;20048;-76
2022/07/24 19:48:08;;;;;;;7.03;6.43;;;;;;;28.71;35.51;99957.09;10448919;28;20141;-73
2022/07/24 19:53:09;;;;;;;7.78;7.05;;;;;;;28.58;35.48;99957.41;10445878;28;20374;-74
2022/07/24 19:58:11;;;;;;;7.47;6.77;;;;;;;28.47;35.96;99947.41;10450484;28;20383;-74
2022/07/24 20:03:12;;;;;;;8.73;6.55;;;;;;;28.39;35.83;99946.72;10435452;28;20362;-75
2022/07/24 20:08:14;;;;;;;7.63;6.95;;;;;;;28.30;35.80;99952.84;10448895;28;20047;-73
2022/07/24 20:13:15;;;;;;;7.37;6.77;;;;;;;28.16;35.68;99947.72;10426927;28;20055;-73
2022/07/24 20:18:17;;;;;;;8.07;7.13;;;;;;;28.09;36.11;99948.94;10447340;28;20044;-72
2022/07/24 20:23:18;;;;;;;8.60;7.77;;;;;;;28.03;35.97;99946.13;10443662;28;20075;-73
2022/07/24 20:28:20;;;;;;;7.85;7.15;;;;;;;27.98;36.49;99953.41;10430184;28;20055;-72
2022/07/24 20:33:22;;;;;;;6.78;6.18;;;;;;;27.87;36.27;99944.97;10435761;28;20048;-74
2022/07/24 20:38:24;;;;;;;6.82;6.13;;;;;;;27.79;35.84;99950.00;10450265;28;20066;-72
2022/07/24 20:43:26;;;;;;;7.13;6.45;;;;;;;27.70;36.76;99944.13;10448513;28;20414;-73
2022/07/24 20:48:27;;;;;;;8.05;7.22;;;;;;;27.62;37.11;99945.38;10444898;28;20036;-73
2022/07/24 20:53:30;;;;;;;6.57;5.97;;;;;;;27.55;36.97;99943.81;10444848;28;20174;-74
2022/07/24 20:58:31;;;;;;;6.28;5.45;;;;;;;27.43;36.94;99941.97;10432650;28;20128;-73
2022/07/24 21:03:33;;;;;;;7.00;6.22;;;;;;;27.32;37.39;99934.59;10448956;28;20059;-73
2022/07/24 21:08:34;;;;;;;7.60;6.90;;;;;;;27.27;37.71;99943.53;10430170;28;20815;-75
2022/07/24 21:13:55;;;;;;;7.68;6.97;;;;;;;27.16;38.02;99937.03;10445767;28;20147;-74
2022/07/24 21:18:56;;;;;;;7.85;7.25;;;;;;;27.04;37.80;99927.16;10430753;28;20616;-72
2022/07/24 21:23:58;;;;;;;7.60;6.88;;;;;;;26.94;38.01;99928.63;10450859;28;20641;-75
2022/07/24 21:28:59;;;;;;;6.70;5.80;;;;;;;26.89;38.36;99936.72;10440802;28;20053;-74
2022/07/24 21:34:02;;;;;;;5.90;5.40;;;;;;;26.80;38.41;99938.97;10423605;28;20045;-75
2022/07/24 21:39:04;;;;;;;;;;;;;;;26.77;38.59;99938.63;10455763;28;20602;-75
2022/07/24 21:44:06;;;;;;;5.78;5.15;;;;;;;26.70;38.91;99938.72;10478960;28;20114;-73
2022/07/24 21:49:08;;;;;;;5.88;5.38;;;;;;;26.61;39.12;99938.22;10476178;28;20058;-74
2022/07/24 21:54:10;;;;;;;6.20;5.60;;;;;;;26.57;38.54;99933.47;10480317;28;20135;-76
2022/07/24 21:59:11;;;;;;;6.25;5.35;;;;;;;26.57;38.30;99928.03;10480525;28;20044;-74
2022/07/24 22:04:13;;;;;;;5.57;5.18;;;;;;;26.51;38.66;99928.97;10459934;28;20194;-73
2022/07/24 22:09:14;;;;;;;6.13;5.07;;;;;;;26.42;39.09;99926.59;10484661;28;20066;-74
2022/07/24 22:14:16;;;;;;;6.63;5.75;;;;;;;26.36;39.61;99921.25;10474568;28;20570;-73
2022/07/24 22:19:18;;;;;;;6.43;5.82;;;;;;;26.30;39.24;99914.81;10465475;28;20154;-74
2022/07/24 22:24:19;;;;;;;6.03;5.53;;;;;;;26.21;39.21;99918.97;10457233;28;20054;-73
2022/07/24 22:29:21;;;;;;;6.03;5.47;;;;;;;26.15;39.63;99914.47;10463470;28;20052;-73
2022/07/24 22:34:23;;;;;;;6.43;5.82;;;;;;;26.08;40.17;99904.50;10472194;28;20135;-72
2022/07/24 22:39:25;;;;;;;6.13;5.60;;;;;;;26.02;40.18;99904.63;10470665;28;20082;-70
2022/07/24 22:44:27;;;;;;;6.43;5.83;;;;;;;25.97;40.54;99902.53;10469846;28;20044;-72
2022/07/24 22:49:29;;;;;;;6.32;5.82;;;;;;;25.89;41.12;99895.53;10468085;28;20052;-72
2022/07/24 22:54:30;;;;;;;6.80;6.10;;;;;;;25.83;41.58;99901.91;10474175;28;20122;-72
2022/07/24 22:59:32;;;;;;;6.47;5.88;;;;;;;25.78;42.17;99893.59;10474020;28;20238;-72
2022/07/24 23:04:34;;;;;;;7.07;6.45;;;;;;;25.70;42.83;99894.78;10461725;28;20058;-71
2022/07/24 23:09:35;;;;;;;6.32;5.82;;;;;;;25.61;43.17;99892.59;10464123;28;20598;-73
2022/07/24 23:14:37;;;;;;;7.15;6.45;;;;;;;25.55;43.32;99887.03;10453668;28;20083;-73
2022/07/24 23:19:38;;;;;;;7.32;6.72;;;;;;;25.48;43.91;99883.56;10461348;28;20072;-72
2022/07/24 23:24:40;;;;;;;6.78;6.22;;;;;;;25.47;43.95;99878.34;10453791;28;20056;-73